AEZ2381 LIMZ-LIEE
Flight info
| Callsign | AEZ2381 |
|---|---|
| Flight time | 1h 1m |
| Altitude | 37000 |
| Route | LAGEN L50 IXITO/N0458F370 DCT UNITA DCT EVROG DCT SUNEV DCT ROMPO DCT UREXE DCT VAVAX DCT LABOM DCT DEXUL DCT KOVAS |
| Aircraft | B738/M-SDE2E3FGHIRWXY/LB1 |
Departure
| Time | 2026-05-09 02:15 |
|---|---|
| Airport | Cuneo International Airport (LIMZ) |
Arrival
| Time | 2026-05-09 03:17 |
|---|---|
| Airport | Cagliari Elmas Airport (LIEE) |
| Time | Latitude | Longitude | Altitude | Speed | Heading |
|---|---|---|---|---|---|
| 2026-05-09 02:06 | 44.54737 | 7.61910 | 1258 ft | 0 kts | 341° |
| 2026-05-09 02:12 | 44.54747 | 7.61917 | 1263 ft | 4 kts | 42° |
| 2026-05-09 02:12 | 44.54731 | 7.61956 | 1263 ft | 7 kts | 150° |
| 2026-05-09 02:12 | 44.54681 | 7.61986 | 1261 ft | 10 kts | 155° |
| 2026-05-09 02:12 | 44.54619 | 7.62089 | 1267 ft | 19 kts | 122° |
| 2026-05-09 02:13 | 44.54665 | 7.62233 | 1259 ft | 23 kts | 32° |
| 2026-05-09 02:13 | 44.54818 | 7.62378 | 1253 ft | 27 kts | 31° |
| 2026-05-09 02:13 | 44.54976 | 7.62516 | 1242 ft | 27 kts | 32° |
| 2026-05-09 02:13 | 44.55177 | 7.62693 | 1240 ft | 39 kts | 32° |
| 2026-05-09 02:14 | 44.55411 | 7.62899 | 1229 ft | 40 kts | 31° |
| 2026-05-09 02:14 | 44.55635 | 7.63079 | 1223 ft | 25 kts | 13° |
| 2026-05-09 02:14 | 44.55671 | 7.63152 | 1222 ft | 3 kts | 177° |
| 2026-05-09 02:14 | 44.55643 | 7.63121 | 1223 ft | 10 kts | 219° |
| 2026-05-09 02:15 | 44.55467 | 7.62965 | 1228 ft | 65 kts | 214° |
| 2026-05-09 02:15 | 44.54865 | 7.62423 | 1254 ft | 137 kts | 212° |
| 2026-05-09 02:15 | 44.53939 | 7.61632 | 1673 ft | 165 kts | 211° |
| 2026-05-09 02:15 | 44.52927 | 7.60743 | 2461 ft | 177 kts | 210° |
| 2026-05-09 02:16 | 44.51747 | 7.60462 | 3331 ft | 183 kts | 165° |
| 2026-05-09 02:16 | 44.50667 | 7.61584 | 3673 ft | 212 kts | 118° |
| 2026-05-09 02:16 | 44.50459 | 7.63621 | 4217 ft | 221 kts | 75° |
| 2026-05-09 02:16 | 44.51315 | 7.65381 | 4966 ft | 223 kts | 39° |
| 2026-05-09 02:17 | 44.52396 | 7.66972 | 5691 ft | 234 kts | 53° |
| 2026-05-09 02:17 | 44.53471 | 7.68859 | 6110 ft | 258 kts | 50° |
| 2026-05-09 02:17 | 44.54663 | 7.70794 | 6926 ft | 265 kts | 49° |
| 2026-05-09 02:17 | 44.55883 | 7.72764 | 7770 ft | 271 kts | 50° |
| 2026-05-09 02:18 | 44.57125 | 7.74782 | 8649 ft | 275 kts | 50° |
| 2026-05-09 02:18 | 44.58377 | 7.76829 | 9543 ft | 279 kts | 50° |
| 2026-05-09 02:18 | 44.59650 | 7.78922 | 10362 ft | 284 kts | 50° |
| 2026-05-09 02:18 | 44.60937 | 7.81045 | 11187 ft | 288 kts | 50° |
| 2026-05-09 02:19 | 44.62243 | 7.83205 | 11982 ft | 292 kts | 50° |
| 2026-05-09 02:19 | 44.63567 | 7.85400 | 12783 ft | 297 kts | 50° |
| 2026-05-09 02:19 | 44.64893 | 7.87602 | 13575 ft | 302 kts | 49° |
| 2026-05-09 02:19 | 44.66259 | 7.89866 | 14323 ft | 306 kts | 48° |
| 2026-05-09 02:20 | 44.67764 | 7.92012 | 15009 ft | 311 kts | 42° |
| 2026-05-09 02:20 | 44.69393 | 7.94116 | 15715 ft | 316 kts | 41° |
| 2026-05-09 02:20 | 44.70999 | 7.96203 | 16409 ft | 322 kts | 41° |
| 2026-05-09 02:20 | 44.72643 | 7.98371 | 17148 ft | 325 kts | 42° |
| 2026-05-09 02:21 | 44.74057 | 8.00859 | 17861 ft | 331 kts | 65° |
| 2026-05-09 02:21 | 44.74613 | 8.04000 | 18501 ft | 335 kts | 91° |
| 2026-05-09 02:21 | 44.74195 | 8.07202 | 19083 ft | 335 kts | 117° |
| 2026-05-09 02:21 | 44.72921 | 8.09895 | 19686 ft | 331 kts | 140° |
| 2026-05-09 02:22 | 44.71203 | 8.12053 | 20320 ft | 332 kts | 144° |
| 2026-05-09 02:22 | 44.69416 | 8.14152 | 20889 ft | 338 kts | 145° |
| 2026-05-09 02:22 | 44.67590 | 8.16282 | 21469 ft | 343 kts | 145° |
| 2026-05-09 02:22 | 44.65753 | 8.18442 | 22098 ft | 346 kts | 144° |
| 2026-05-09 02:23 | 44.63903 | 8.20639 | 22717 ft | 351 kts | 144° |
| 2026-05-09 02:23 | 44.62036 | 8.22872 | 23323 ft | 354 kts | 144° |
| 2026-05-09 02:23 | 44.60149 | 8.25132 | 23855 ft | 359 kts | 144° |
| 2026-05-09 02:23 | 44.58240 | 8.27418 | 24350 ft | 362 kts | 144° |
| 2026-05-09 02:24 | 44.56322 | 8.29714 | 24856 ft | 365 kts | 144° |
| 2026-05-09 02:24 | 44.54343 | 8.32067 | 24971 ft | 381 kts | 144° |
| 2026-05-09 02:24 | 44.52270 | 8.34506 | 25073 ft | 396 kts | 146° |
| 2026-05-09 02:24 | 44.49952 | 8.36656 | 25180 ft | 405 kts | 155° |
| 2026-05-09 02:25 | 44.47446 | 8.38595 | 25272 ft | 419 kts | 156° |
| 2026-05-09 02:25 | 44.44834 | 8.40546 | 25355 ft | 432 kts | 156° |
| 2026-05-09 02:25 | 44.42146 | 8.42544 | 25430 ft | 444 kts | 156° |
| 2026-05-09 02:25 | 44.39387 | 8.44610 | 25496 ft | 455 kts | 155° |
| 2026-05-09 02:26 | 44.36583 | 8.46731 | 25677 ft | 462 kts | 155° |
| 2026-05-09 02:26 | 44.33760 | 8.48889 | 26075 ft | 463 kts | 155° |
| 2026-05-09 02:26 | 44.30935 | 8.51058 | 26505 ft | 463 kts | 155° |
| 2026-05-09 02:26 | 44.28105 | 8.53233 | 26772 ft | 468 kts | 155° |
| 2026-05-09 02:27 | 44.25271 | 8.55409 | 26979 ft | 473 kts | 155° |
| 2026-05-09 02:27 | 44.22382 | 8.57626 | 27317 ft | 475 kts | 155° |
| 2026-05-09 02:27 | 44.19483 | 8.59850 | 27693 ft | 476 kts | 155° |
| 2026-05-09 02:27 | 44.16577 | 8.62075 | 28042 ft | 478 kts | 155° |
| 2026-05-09 02:28 | 44.13654 | 8.64309 | 28338 ft | 480 kts | 155° |
| 2026-05-09 02:28 | 44.10716 | 8.66552 | 28619 ft | 483 kts | 155° |
| 2026-05-09 02:28 | 44.07765 | 8.68801 | 28873 ft | 486 kts | 155° |
| 2026-05-09 02:28 | 44.04785 | 8.71069 | 29083 ft | 489 kts | 155° |
| 2026-05-09 02:29 | 44.01804 | 8.73337 | 29523 ft | 488 kts | 155° |
| 2026-05-09 02:29 | 43.98839 | 8.75592 | 30062 ft | 484 kts | 155° |
| 2026-05-09 02:29 | 43.95895 | 8.77828 | 30482 ft | 482 kts | 155° |
| 2026-05-09 02:29 | 43.92944 | 8.80066 | 30752 ft | 484 kts | 156° |
| 2026-05-09 02:30 | 43.89985 | 8.82304 | 30989 ft | 486 kts | 156° |
| 2026-05-09 02:30 | 43.87007 | 8.84554 | 31209 ft | 488 kts | 156° |
| 2026-05-09 02:30 | 43.84003 | 8.86819 | 31269 ft | 495 kts | 157° |
| 2026-05-09 02:30 | 43.80971 | 8.89104 | 31489 ft | 496 kts | 157° |
| 2026-05-09 02:31 | 43.77945 | 8.91386 | 31841 ft | 495 kts | 157° |
| 2026-05-09 02:31 | 43.74919 | 8.93666 | 32189 ft | 495 kts | 158° |
| 2026-05-09 02:31 | 43.72916 | 8.95174 | 32369 ft | 495 kts | 158° |
| 2026-05-09 02:31 | 43.69844 | 8.97481 | 32604 ft | 497 kts | 158° |
| 2026-05-09 02:32 | 43.66799 | 8.99766 | 32834 ft | 499 kts | 159° |
| 2026-05-09 02:32 | 43.60669 | 9.04350 | 33045 ft | 508 kts | 159° |
| 2026-05-09 02:32 | 43.57563 | 9.06673 | 33370 ft | 507 kts | 159° |
| 2026-05-09 02:33 | 43.54466 | 9.08990 | 33711 ft | 506 kts | 160° |
| 2026-05-09 02:33 | 43.51373 | 9.11302 | 34052 ft | 505 kts | 159° |
| 2026-05-09 02:33 | 43.48284 | 9.13608 | 34364 ft | 504 kts | 159° |
| 2026-05-09 02:33 | 43.45206 | 9.15900 | 34607 ft | 504 kts | 160° |
| 2026-05-09 02:34 | 43.42103 | 9.18202 | 34651 ft | 509 kts | 160° |
| 2026-05-09 02:34 | 43.38972 | 9.20521 | 34771 ft | 512 kts | 160° |
| 2026-05-09 02:34 | 43.35846 | 9.22839 | 35082 ft | 510 kts | 160° |
| 2026-05-09 02:34 | 43.32736 | 9.25148 | 35502 ft | 505 kts | 160° |
| 2026-05-09 02:35 | 43.29657 | 9.27433 | 35890 ft | 501 kts | 160° |
| 2026-05-09 02:35 | 43.26596 | 9.29699 | 36199 ft | 500 kts | 160° |
| 2026-05-09 02:35 | 43.23540 | 9.31955 | 36435 ft | 499 kts | 160° |
| 2026-05-09 02:35 | 43.20470 | 9.34214 | 36588 ft | 501 kts | 160° |
| 2026-05-09 02:36 | 43.17400 | 9.36471 | 36809 ft | 501 kts | 160° |
| 2026-05-09 02:36 | 43.14334 | 9.38726 | 37089 ft | 500 kts | 160° |
| 2026-05-09 02:36 | 43.11257 | 9.40985 | 37070 ft | 503 kts | 160° |
| 2026-05-09 02:37 | 43.05087 | 9.45510 | 37070 ft | 502 kts | 160° |
| 2026-05-09 02:37 | 42.98961 | 9.50001 | 37081 ft | 499 kts | 160° |
| 2026-05-09 02:38 | 42.92828 | 9.54475 | 37086 ft | 501 kts | 160° |
| 2026-05-09 02:38 | 42.86665 | 9.58962 | 37085 ft | 503 kts | 160° |
| 2026-05-09 02:39 | 42.80486 | 9.63453 | 37063 ft | 504 kts | 160° |
| 2026-05-09 02:39 | 42.74289 | 9.67949 | 37080 ft | 505 kts | 160° |
| 2026-05-09 02:40 | 42.68081 | 9.72442 | 37074 ft | 506 kts | 160° |
| 2026-05-09 02:40 | 42.61908 | 9.76902 | 37076 ft | 506 kts | 160° |
| 2026-05-09 02:41 | 42.55700 | 9.81378 | 37081 ft | 504 kts | 161° |
| 2026-05-09 02:41 | 42.49374 | 9.85198 | 37087 ft | 487 kts | 175° |
| 2026-05-09 02:41 | 42.46101 | 9.86115 | 37085 ft | 476 kts | 183° |
| 2026-05-09 02:42 | 42.42843 | 9.86438 | 37070 ft | 463 kts | 192° |
| 2026-05-09 02:42 | 42.36464 | 9.85936 | 37074 ft | 459 kts | 194° |
| 2026-05-09 02:43 | 42.30073 | 9.85412 | 37078 ft | 461 kts | 194° |
| 2026-05-09 02:43 | 42.23658 | 9.84936 | 37078 ft | 463 kts | 194° |
| 2026-05-09 02:44 | 42.17221 | 9.84483 | 37060 ft | 464 kts | 194° |
| 2026-05-09 02:44 | 42.10780 | 9.84036 | 37068 ft | 464 kts | 194° |
| 2026-05-09 02:45 | 42.04330 | 9.83587 | 37074 ft | 464 kts | 194° |
| 2026-05-09 02:45 | 41.97885 | 9.83139 | 37056 ft | 463 kts | 194° |
| 2026-05-09 02:46 | 41.91474 | 9.82696 | 37065 ft | 460 kts | 194° |
| 2026-05-09 02:46 | 41.85090 | 9.82253 | 37065 ft | 458 kts | 194° |
| 2026-05-09 02:47 | 41.78732 | 9.81811 | 37066 ft | 457 kts | 194° |
| 2026-05-09 02:47 | 41.72401 | 9.81373 | 37061 ft | 455 kts | 194° |
| 2026-05-09 02:48 | 41.66090 | 9.80936 | 37067 ft | 454 kts | 194° |
| 2026-05-09 02:48 | 41.59789 | 9.80502 | 37071 ft | 453 kts | 194° |
| 2026-05-09 02:49 | 41.53502 | 9.80069 | 37060 ft | 452 kts | 194° |
| 2026-05-09 02:49 | 41.47229 | 9.79638 | 37068 ft | 451 kts | 194° |
| 2026-05-09 02:50 | 41.40961 | 9.79208 | 37069 ft | 451 kts | 194° |
| 2026-05-09 02:50 | 41.34695 | 9.78780 | 37043 ft | 451 kts | 194° |
| 2026-05-09 02:51 | 41.28438 | 9.78354 | 37070 ft | 450 kts | 194° |
| 2026-05-09 02:51 | 41.22178 | 9.77929 | 37074 ft | 450 kts | 194° |
| 2026-05-09 02:52 | 41.15961 | 9.77508 | 37072 ft | 450 kts | 194° |
| 2026-05-09 02:52 | 41.09746 | 9.76779 | 37071 ft | 436 kts | 203° |
| 2026-05-09 02:52 | 41.06874 | 9.75678 | 37074 ft | 422 kts | 212° |
| 2026-05-09 02:53 | 41.04201 | 9.74246 | 37083 ft | 420 kts | 213° |
| 2026-05-09 02:53 | 40.98774 | 9.71349 | 37077 ft | 421 kts | 212° |
| 2026-05-09 02:54 | 40.93305 | 9.68518 | 37043 ft | 422 kts | 212° |
| 2026-05-09 02:54 | 40.87883 | 9.65745 | 37049 ft | 406 kts | 212° |
| 2026-05-09 02:54 | 40.85298 | 9.64435 | 37063 ft | 391 kts | 212° |
| 2026-05-09 02:55 | 40.82808 | 9.63168 | 37048 ft | 376 kts | 213° |
| 2026-05-09 02:55 | 40.80409 | 9.61945 | 37059 ft | 362 kts | 213° |
| 2026-05-09 02:55 | 40.78110 | 9.60771 | 37047 ft | 348 kts | 214° |
| 2026-05-09 02:55 | 40.75904 | 9.59642 | 37065 ft | 334 kts | 214° |
| 2026-05-09 02:56 | 40.73737 | 9.58520 | 37084 ft | 338 kts | 214° |
| 2026-05-09 02:56 | 40.69321 | 9.56266 | 37087 ft | 346 kts | 214° |
| 2026-05-09 02:57 | 40.64764 | 9.53914 | 37095 ft | 358 kts | 213° |
| 2026-05-09 02:57 | 40.60078 | 9.51511 | 37092 ft | 364 kts | 213° |
| 2026-05-09 02:58 | 40.55358 | 9.49112 | 36955 ft | 357 kts | 213° |
| 2026-05-09 02:58 | 40.53068 | 9.47959 | 36432 ft | 351 kts | 213° |
| 2026-05-09 02:58 | 40.50771 | 9.46786 | 35339 ft | 360 kts | 212° |
| 2026-05-09 02:58 | 40.48387 | 9.45557 | 34155 ft | 375 kts | 211° |
| 2026-05-09 02:59 | 40.45895 | 9.44281 | 32664 ft | 391 kts | 210° |
| 2026-05-09 02:59 | 40.43310 | 9.42968 | 31178 ft | 406 kts | 209° |
| 2026-05-09 02:59 | 40.40644 | 9.41619 | 29941 ft | 414 kts | 208° |
| 2026-05-09 02:59 | 40.37944 | 9.40258 | 28426 ft | 418 kts | 208° |
| 2026-05-09 03:00 | 40.35215 | 9.38882 | 26966 ft | 424 kts | 208° |
| 2026-05-09 03:00 | 40.32461 | 9.37493 | 25638 ft | 426 kts | 208° |
| 2026-05-09 03:00 | 40.29688 | 9.36094 | 24412 ft | 426 kts | 207° |
| 2026-05-09 03:00 | 40.26966 | 9.34722 | 23123 ft | 425 kts | 207° |
| 2026-05-09 03:01 | 40.24219 | 9.33341 | 21762 ft | 423 kts | 207° |
| 2026-05-09 03:01 | 40.21480 | 9.31967 | 20445 ft | 420 kts | 206° |
| 2026-05-09 03:01 | 40.18764 | 9.30605 | 19235 ft | 417 kts | 206° |
| 2026-05-09 03:01 | 40.16063 | 9.29251 | 18035 ft | 414 kts | 206° |
| 2026-05-09 03:02 | 40.13388 | 9.27910 | 16807 ft | 410 kts | 205° |
| 2026-05-09 03:02 | 40.10739 | 9.26583 | 15631 ft | 406 kts | 205° |
| 2026-05-09 03:02 | 40.08127 | 9.25277 | 14642 ft | 397 kts | 205° |
| 2026-05-09 03:02 | 40.05579 | 9.24005 | 13867 ft | 385 kts | 204° |
| 2026-05-09 03:03 | 40.03121 | 9.22785 | 13183 ft | 371 kts | 205° |
| 2026-05-09 03:03 | 40.00752 | 9.21601 | 12524 ft | 359 kts | 205° |
| 2026-05-09 03:03 | 39.98447 | 9.20453 | 11946 ft | 350 kts | 205° |
| 2026-05-09 03:03 | 39.96189 | 9.19324 | 11371 ft | 347 kts | 205° |
| 2026-05-09 03:04 | 39.93938 | 9.18198 | 11197 ft | 350 kts | 205° |
| 2026-05-09 03:04 | 39.91625 | 9.17040 | 10986 ft | 353 kts | 204° |
| 2026-05-09 03:04 | 39.89399 | 9.15939 | 10834 ft | 330 kts | 205° |
| 2026-05-09 03:04 | 39.87325 | 9.14915 | 10677 ft | 309 kts | 205° |
| 2026-05-09 03:05 | 39.85372 | 9.13985 | 10562 ft | 292 kts | 202° |
| 2026-05-09 03:05 | 39.83446 | 9.13287 | 10441 ft | 283 kts | 199° |
| 2026-05-09 03:05 | 39.81564 | 9.12680 | 10323 ft | 276 kts | 199° |
| 2026-05-09 03:05 | 39.79686 | 9.12077 | 10229 ft | 281 kts | 199° |
| 2026-05-09 03:06 | 39.77799 | 9.11466 | 10093 ft | 275 kts | 199° |
| 2026-05-09 03:06 | 39.75974 | 9.10873 | 9788 ft | 267 kts | 199° |
| 2026-05-09 03:06 | 39.74183 | 9.10283 | 9515 ft | 264 kts | 199° |
| 2026-05-09 03:06 | 39.72405 | 9.09693 | 9213 ft | 263 kts | 199° |
| 2026-05-09 03:07 | 39.70647 | 9.09109 | 8961 ft | 260 kts | 199° |
| 2026-05-09 03:07 | 39.68902 | 9.08528 | 8685 ft | 259 kts | 198° |
| 2026-05-09 03:07 | 39.67163 | 9.07949 | 8403 ft | 258 kts | 199° |
| 2026-05-09 03:07 | 39.65430 | 9.07373 | 8128 ft | 257 kts | 199° |
| 2026-05-09 03:08 | 39.63661 | 9.06995 | 7853 ft | 261 kts | 184° |
| 2026-05-09 03:08 | 39.61844 | 9.07082 | 7630 ft | 260 kts | 181° |
| 2026-05-09 03:08 | 39.60066 | 9.07161 | 7512 ft | 253 kts | 182° |
| 2026-05-09 03:08 | 39.58327 | 9.07214 | 7352 ft | 248 kts | 182° |
| 2026-05-09 03:09 | 39.56619 | 9.07256 | 7215 ft | 242 kts | 182° |
| 2026-05-09 03:09 | 39.54955 | 9.07292 | 7101 ft | 236 kts | 182° |
| 2026-05-09 03:09 | 39.53350 | 9.07209 | 6958 ft | 227 kts | 198° |
| 2026-05-09 03:09 | 39.52011 | 9.06255 | 6717 ft | 223 kts | 220° |
| 2026-05-09 03:10 | 39.50760 | 9.05053 | 6423 ft | 224 kts | 219° |
| 2026-05-09 03:10 | 39.49463 | 9.03820 | 5917 ft | 227 kts | 218° |
| 2026-05-09 03:10 | 39.48246 | 9.02669 | 5725 ft | 218 kts | 218° |
| 2026-05-09 03:10 | 39.47037 | 9.01528 | 5413 ft | 213 kts | 217° |
| 2026-05-09 03:11 | 39.45849 | 9.00408 | 5104 ft | 209 kts | 217° |
| 2026-05-09 03:11 | 39.44681 | 8.99308 | 4812 ft | 206 kts | 216° |
| 2026-05-09 03:11 | 39.43534 | 8.98227 | 4507 ft | 203 kts | 215° |
| 2026-05-09 03:11 | 39.42402 | 8.97162 | 4222 ft | 200 kts | 215° |
| 2026-05-09 03:12 | 39.41284 | 8.96111 | 3933 ft | 198 kts | 215° |
| 2026-05-09 03:12 | 39.40162 | 8.95056 | 3657 ft | 196 kts | 214° |
| 2026-05-09 03:12 | 39.39073 | 8.94033 | 3391 ft | 191 kts | 214° |
| 2026-05-09 03:12 | 39.38004 | 8.93032 | 3104 ft | 188 kts | 212° |
| 2026-05-09 03:13 | 39.35727 | 8.93172 | 2587 ft | 171 kts | 141° |
| 2026-05-09 03:13 | 39.34828 | 8.94182 | 2319 ft | 171 kts | 137° |
| 2026-05-09 03:13 | 39.33950 | 8.95212 | 2086 ft | 168 kts | 137° |
| 2026-05-09 03:14 | 39.33101 | 8.96203 | 1867 ft | 166 kts | 137° |
| 2026-05-09 03:14 | 39.32247 | 8.97196 | 1654 ft | 162 kts | 137° |
| 2026-05-09 03:14 | 39.31437 | 8.98134 | 1452 ft | 147 kts | 137° |
| 2026-05-09 03:14 | 39.30683 | 8.99009 | 1249 ft | 145 kts | 137° |
| 2026-05-09 03:15 | 39.29932 | 8.99879 | 1053 ft | 145 kts | 137° |
| 2026-05-09 03:15 | 39.29181 | 9.00749 | 892 ft | 147 kts | 137° |
| 2026-05-09 03:15 | 39.28418 | 9.01641 | 688 ft | 149 kts | 136° |
| 2026-05-09 03:15 | 39.27654 | 9.02544 | 465 ft | 145 kts | 136° |
| 2026-05-09 03:16 | 39.26901 | 9.03421 | 258 ft | 147 kts | 137° |
| 2026-05-09 03:16 | 39.26127 | 9.04297 | 49 ft | 148 kts | 137° |
| 2026-05-09 03:16 | 39.25408 | 9.05135 | 14 ft | 123 kts | 139° |
| 2026-05-09 03:16 | 39.24921 | 9.05688 | 15 ft | 62 kts | 137° |
| 2026-05-09 03:17 | 39.24695 | 9.05979 | 15 ft | 27 kts | 115° |
| 2026-05-09 03:17 | 39.24729 | 9.06177 | 14 ft | 21 kts | 64° |
| 2026-05-09 03:17 | 39.24805 | 9.06284 | 14 ft | 16 kts | 343° |
| 2026-05-09 03:17 | 39.24867 | 9.06233 | 14 ft | 15 kts | 320° |
| 2026-05-09 03:18 | 39.24982 | 9.06109 | 14 ft | 24 kts | 317° |
| 2026-05-09 03:18 | 39.25098 | 9.05949 | 14 ft | 19 kts | 316° |
| 2026-05-09 03:18 | 39.25157 | 9.05949 | 15 ft | 12 kts | 48° |
| 2026-05-09 03:18 | 39.25195 | 9.06009 | 14 ft | 2 kts | 50° |
| 2026-05-09 03:19 | 39.25195 | 9.06010 | 14 ft | 0 kts | 50° |
| 2026-05-09 03:19 | 39.25226 | 9.06015 | 14 ft | 6 kts | 336° |
| 2026-05-09 03:19 | 39.25246 | 9.05997 | 15 ft | 3 kts | 322° |
| 2026-05-09 03:19 | 39.25262 | 9.05981 | 14 ft | 1 kts | 322° |